Time;durP1;ratioP1;P1;durP2;ratioP2;P2;SDS_P1;SDS_P2;PMS_P1;PMS_P2;Temp;Humidity;BMP_temperature;BMP_pressure;BME280_temperature;BME280_humidity;BME280_pressure;Samples;Min_cycle;Max_cycle;Signal;HPM_P1;HPM_P2
2023/12/02 00:02:15;;;;;;;0.03;0.03;;;21.50;48.20;;;;;;5033040;28;20224;-45
2023/12/02 00:04:46;;;;;;;0.00;0.00;;;21.50;48.20;;;;;;5033624;28;20195;-46
2023/12/02 00:07:20;;;;;;;0.00;0.00;;;21.50;48.10;;;;;;5033947;28;20288;-47
2023/12/02 00:09:50;;;;;;;0.10;0.10;;;21.50;48.10;;;;;;5033066;28;20647;-47
2023/12/02 00:12:21;;;;;;;0.00;0.00;;;21.50;48.10;;;;;;5033214;28;20214;-46
2023/12/02 00:14:52;;;;;;;0.00;0.00;;;21.60;48.10;;;;;;5033403;28;20568;-48
2023/12/02 00:17:22;;;;;;;0.05;0.05;;;21.60;48.20;;;;;;5032924;28;20223;-46
2023/12/02 00:19:53;;;;;;;0.10;0.10;;;21.60;48.30;;;;;;5033408;28;20203;-47
2023/12/02 00:22:26;;;;;;;0.10;0.10;;;21.60;48.30;;;;;;5032935;28;20235;-46
2023/12/02 00:24:56;;;;;;;0.10;0.10;;;21.60;48.90;;;;;;5032943;28;20549;-46
2023/12/02 00:27:27;;;;;;;0.10;0.10;;;21.60;48.20;;;;;;5032983;28;20204;-48
2023/12/02 00:29:58;;;;;;;0.10;0.10;;;21.60;48.40;;;;;;5031429;28;20563;-49
2023/12/02 00:32:29;;;;;;;0.10;0.10;;;21.60;48.30;;;;;;5014027;28;20197;-46
2023/12/02 00:35:00;;;;;;;0.10;0.10;;;21.60;48.30;;;;;;5013652;28;20193;-48
2023/12/02 00:37:32;;;;;;;0.00;0.00;;;21.60;48.30;;;;;;5013761;28;20201;-48
2023/12/02 00:40:03;;;;;;;0.00;0.00;;;21.70;48.40;;;;;;5029500;28;20598;-45
2023/12/02 00:42:34;;;;;;;0.00;0.00;;;21.60;48.60;;;;;;5033351;28;20219;-45
2023/12/02 00:45:05;;;;;;;0.00;0.00;;;21.70;48.70;;;;;;5033761;28;20573;-47
2023/12/02 00:47:36;;;;;;;0.00;0.00;;;21.70;48.60;;;;;;5033399;28;20196;-46
2023/12/02 00:50:07;;;;;;;0.00;0.00;;;21.70;48.50;;;;;;5032892;28;20231;-48
2023/12/02 00:52:39;;;;;;;0.10;0.10;;;21.70;48.50;;;;;;5015771;28;20193;-45
2023/12/02 00:55:11;;;;;;;0.03;0.03;;;21.80;48.50;;;;;;5025072;28;20211;-45
2023/12/02 00:57:42;;;;;;;0.00;0.00;;;21.80;48.50;;;;;;5032932;28;20200;-50
2023/12/02 01:00:13;;;;;;;0.00;0.00;;;21.80;48.50;;;;;;5028816;28;20213;-47
2023/12/02 01:02:44;;;;;;;0.10;0.10;;;21.80;48.90;;;;;;5013801;28;20224;-46
2023/12/02 01:05:15;;;;;;;0.00;0.00;;;21.90;49.20;;;;;;5013691;28;20197;-48
2023/12/02 01:07:48;;;;;;;0.00;0.00;;;21.90;49.20;;;;;;5013540;28;20780;-48
2023/12/02 01:10:19;;;;;;;0.10;0.10;;;22.00;49.90;;;;;;5013083;28;20716;-47
2023/12/02 01:12:49;;;;;;;0.08;0.08;;;22.00;49.20;;;;;;5013078;28;20568;-46
2023/12/02 01:15:20;;;;;;;0.10;0.10;;;22.00;49.20;;;;;;5013494;28;20585;-48
2023/12/02 01:17:51;;;;;;;0.05;0.05;;;22.10;49.30;;;;;;5013268;28;20208;-48
2023/12/02 01:20:21;;;;;;;0.00;0.00;;;22.10;49.20;;;;;;5012760;28;20220;-47
2023/12/02 01:22:54;;;;;;;0.03;0.03;;;22.10;49.90;;;;;;5012948;28;20225;-47
2023/12/02 01:25:25;;;;;;;0.00;0.00;;;22.10;49.20;;;;;;5027078;28;20211;-48
2023/12/02 01:27:55;;;;;;;0.00;0.00;;;22.10;49.20;;;;;;5032807;28;20636;-46
2023/12/02 01:30:27;;;;;;;0.00;0.00;;;22.10;49.30;;;;;;5032496;28;20228;-45
2023/12/02 01:32:58;;;;;;;0.00;0.00;;;22.20;49.10;;;;;;5032055;28;20200;-48
2023/12/02 01:35:28;;;;;;;0.00;0.00;;;22.20;49.00;;;;;;5033106;28;20207;-46
2023/12/02 01:38:01;;;;;;;0.00;0.00;;;22.20;48.90;;;;;;5032823;28;20196;-45
2023/12/02 01:40:32;;;;;;;0.00;0.00;;;22.30;48.90;;;;;;5032852;28;20543;-46
2023/12/02 01:43:04;;;;;;;0.00;0.00;;;22.30;48.90;;;;;;5032319;28;20230;-47
2023/12/02 01:45:34;;;;;;;0.00;0.00;;;22.30;48.80;;;;;;5032774;28;20250;-48
2023/12/02 01:48:05;;;;;;;0.00;0.00;;;22.30;48.70;;;;;;5032292;28;20652;-48
2023/12/02 01:50:36;;;;;;;0.00;0.00;;;22.30;48.70;;;;;;5032272;28;20238;-48
2023/12/02 01:53:10;;;;;;;0.00;0.00;;;22.30;48.60;;;;;;5032418;28;20211;-49
2023/12/02 01:55:40;;;;;;;0.00;0.00;;;22.40;48.60;;;;;;5032826;28;20254;-47
2023/12/02 01:58:11;;;;;;;0.00;0.00;;;22.40;48.70;;;;;;5032120;28;20584;-45
2023/12/02 02:00:42;;;;;;;0.00;0.00;;;22.40;48.60;;;;;;5031857;28;20219;-49
2023/12/02 02:03:12;;;;;;;0.00;0.00;;;22.40;48.60;;;;;;5032746;28;20227;-49
2023/12/02 02:05:45;;;;;;;0.00;0.00;;;22.40;48.80;;;;;;5031794;28;20207;-44
2023/12/02 02:08:17;;;;;;;0.05;0.05;;;22.50;48.80;;;;;;5032118;28;20591;-45
2023/12/02 02:10:48;;;;;;;0.00;0.00;;;22.50;48.80;;;;;;5032183;28;20224;-45
2023/12/02 02:13:19;;;;;;;0.00;0.00;;;22.50;48.80;;;;;;5031753;28;20211;-46
2023/12/02 02:15:49;;;;;;;0.00;0.00;;;22.50;48.90;;;;;;5032127;28;20196;-48
2023/12/02 02:18:20;;;;;;;0.10;0.10;;;22.60;49.50;;;;;;5032195;28;20200;-46
2023/12/02 02:20:53;;;;;;;0.00;0.00;;;22.60;48.70;;;;;;5031930;28;20220;-45
2023/12/02 02:23:26;;;;;;;0.00;0.00;;;22.60;48.60;;;;;;5031716;28;20227;-47
2023/12/02 02:25:57;;;;;;;0.00;0.00;;;22.70;48.60;;;;;;5031669;28;20559;-48
2023/12/02 02:28:28;;;;;;;0.00;0.00;;;22.70;48.60;;;;;;5031739;28;20211;-47
2023/12/02 02:30:59;;;;;;;0.10;0.10;;;22.70;48.50;;;;;;5031767;28;20212;-48
2023/12/02 02:33:31;;;;;;;0.08;0.08;;;22.70;48.50;;;;;;5031243;28;20207;-47
2023/12/02 02:36:02;;;;;;;0.00;0.00;;;22.80;48.50;;;;;;5031821;28;20204;-47
2023/12/02 02:38:35;;;;;;;0.10;0.10;;;22.80;48.50;;;;;;5014608;28;20280;-45
2023/12/02 02:41:06;;;;;;;0.00;0.00;;;22.80;48.50;;;;;;5014167;28;20211;-44
2023/12/02 02:43:37;;;;;;;0.00;0.00;;;22.90;48.60;;;;;;5011852;28;20224;-49
2023/12/02 02:46:09;;;;;;;0.00;0.00;;;22.90;48.60;;;;;;5012008;28;20204;-47
2023/12/02 02:48:40;;;;;;;0.00;0.00;;;22.90;48.50;;;;;;5014260;28;20653;-49
2023/12/02 02:51:11;;;;;;;0.00;0.00;;;22.90;48.50;;;;;;5011473;28;20696;-46
2023/12/02 02:53:43;;;;;;;0.00;0.00;;;22.90;48.50;;;;;;5011810;28;20201;-48
2023/12/02 02:56:14;;;;;;;0.00;0.00;;;22.90;48.40;;;;;;5011771;28;20207;-46
2023/12/02 02:58:45;;;;;;;0.10;0.10;;;23.00;48.60;;;;;;5011815;28;20200;-48
2023/12/02 03:01:16;;;;;;;0.00;0.00;;;23.00;48.50;;;;;;5012943;28;20212;-50
2023/12/02 03:03:47;;;;;;;0.00;0.00;;;23.00;48.50;;;;;;5012123;28;20205;-49
2023/12/02 03:06:18;;;;;;;0.00;0.00;;;23.00;48.50;;;;;;5011907;28;20201;-47
2023/12/02 03:08:51;;;;;;;0.03;0.03;;;23.00;48.50;;;;;;5011745;28;20284;-47
2023/12/02 03:11:22;;;;;;;0.10;0.10;;;23.00;48.40;;;;;;5011387;28;20221;-47
2023/12/02 03:13:52;;;;;;;0.00;0.00;;;23.00;48.40;;;;;;5011573;28;20645;-47
2023/12/02 03:16:23;;;;;;;0.00;0.00;;;23.10;48.40;;;;;;5011691;28;20205;-45
2023/12/02 03:18:54;;;;;;;0.10;0.10;;;23.10;48.50;;;;;;5014699;28;20212;-45
2023/12/02 03:21:24;;;;;;;0.00;0.00;;;23.10;48.40;;;;;;5015197;28;20235;-50
2023/12/02 03:23:57;;;;;;;0.00;0.00;;;23.10;48.40;;;;;;5016889;28;20197;-47
2023/12/02 03:26:28;;;;;;;0.00;0.00;;;23.10;48.40;;;;;;5034837;28;20196;-45
2023/12/02 03:28:58;;;;;;;0.00;0.00;;;23.10;48.40;;;;;;5035126;28;20204;-45
2023/12/02 03:31:29;;;;;;;0.00;0.00;;;23.10;48.30;;;;;;5034888;28;20904;-47
2023/12/02 03:34:00;;;;;;;0.03;0.03;;;23.20;48.40;;;;;;5034860;28;20673;-46
2023/12/02 03:36:31;;;;;;;0.00;0.00;;;23.20;48.30;;;;;;5034860;28;20214;-46
2023/12/02 03:39:04;;;;;;;0.00;0.00;;;23.10;48.30;;;;;;5034963;28;20196;-46
2023/12/02 03:41:35;;;;;;;0.05;0.05;;;23.20;48.30;;;;;;5034093;28;20677;-48
2023/12/02 03:44:06;;;;;;;0.00;0.00;;;23.20;48.30;;;;;;5034904;28;20299;-47
2023/12/02 03:46:38;;;;;;;0.00;0.00;;;23.20;48.20;;;;;;5034842;28;20203;-46
2023/12/02 03:49:09;;;;;;;0.00;0.00;;;23.20;48.20;;;;;;5034391;28;20199;-48
2023/12/02 03:51:40;;;;;;;0.10;0.10;;;23.20;48.80;;;;;;5033913;28;20216;-48
2023/12/02 03:54:12;;;;;;;0.10;0.10;;;23.20;48.20;;;;;;5034256;28;20196;-48
2023/12/02 03:56:43;;;;;;;0.00;0.00;;;23.20;48.20;;;;;;5034285;28;20210;-45
2023/12/02 03:59:14;;;;;;;0.00;0.00;;;23.20;48.20;;;;;;5034586;28;20246;-46
2023/12/02 04:01:45;;;;;;;0.00;0.00;;;23.20;48.20;;;;;;5034317;28;20241;-48
2023/12/02 04:04:16;;;;;;;0.00;0.00;;;23.20;48.20;;;;;;5034885;28;20203;-46
2023/12/02 04:06:47;;;;;;;0.00;0.00;;;23.20;48.20;;;;;;5034539;28;20613;-48
2023/12/02 04:09:21;;;;;;;0.00;0.00;;;23.30;48.30;;;;;;5034434;28;20196;-49
2023/12/02 04:11:52;;;;;;;0.10;0.10;;;23.20;48.10;;;;;;5033860;28;20373;-46
2023/12/02 04:14:22;;;;;;;0.00;0.00;;;23.20;48.10;;;;;;5031630;28;20196;-50
2023/12/02 04:16:53;;;;;;;0.00;0.00;;;23.30;48.30;;;;;;5033983;28;20226;-48
2023/12/02 04:19:24;;;;;;;0.00;0.00;;;23.30;48.20;;;;;;5034003;28;20200;-46
2023/12/02 04:21:55;;;;;;;0.00;0.00;;;23.30;48.30;;;;;;5033972;28;20216;-48
2023/12/02 04:24:27;;;;;;;0.10;0.10;;;23.30;48.30;;;;;;5034210;28;20243;-45
2023/12/02 04:26:58;;;;;;;0.00;0.00;;;23.30;48.30;;;;;;5033968;28;20279;-49
2023/12/02 04:29:29;;;;;;;0.10;0.10;;;23.30;48.30;;;;;;5033171;28;20196;-45
2023/12/02 04:31:59;;;;;;;0.00;0.00;;;23.30;48.20;;;;;;5032902;28;20216;-48
2023/12/02 04:34:30;;;;;;;0.00;0.00;;;23.30;48.20;;;;;;5032013;28;20196;-46
2023/12/02 04:37:01;;;;;;;0.00;0.00;;;23.30;48.20;;;;;;5033519;28;20198;-48
2023/12/02 04:39:33;;;;;;;0.00;0.00;;;23.30;48.20;;;;;;5033583;28;20200;-49
2023/12/02 04:42:04;;;;;;;0.10;0.10;;;23.30;48.30;;;;;;5030171;28;20212;-46
2023/12/02 04:44:36;;;;;;;0.00;0.00;;;23.30;48.20;;;;;;5013644;28;20200;-47
2023/12/02 04:47:07;;;;;;;0.03;0.03;;;23.30;48.20;;;;;;5013392;28;20284;-46
2023/12/02 04:49:37;;;;;;;0.00;0.00;;;23.30;48.20;;;;;;5013757;28;20549;-45
2023/12/02 04:52:08;;;;;;;0.00;0.00;;;23.30;48.20;;;;;;5017897;28;20204;-45
2023/12/02 04:54:41;;;;;;;0.08;0.08;;;23.30;48.20;;;;;;5032304;28;20624;-45
2023/12/02 04:57:11;;;;;;;0.00;0.00;;;23.30;48.20;;;;;;5032751;28;20204;-49
2023/12/02 04:59:42;;;;;;;0.00;0.00;;;23.40;48.90;;;;;;5033340;28;20203;-46
2023/12/02 05:02:13;;;;;;;0.00;0.00;;;23.40;48.20;;;;;;5033383;28;20196;-48
2023/12/02 05:04:44;;;;;;;0.10;0.10;;;23.40;48.20;;;;;;5033835;28;20701;-46
2023/12/02 05:07:14;;;;;;;0.03;0.03;;;23.40;48.20;;;;;;5033085;28;20204;-44
2023/12/02 05:09:47;;;;;;;0.00;0.00;;;23.40;48.20;;;;;;5033105;28;20577;-47
2023/12/02 05:12:17;;;;;;;0.00;0.00;;;23.40;48.20;;;;;;5032408;28;20660;-47
2023/12/02 05:14:48;;;;;;;0.00;0.00;;;23.40;48.20;;;;;;5032895;28;20211;-50
2023/12/02 05:17:19;;;;;;;0.00;0.00;;;23.40;48.20;;;;;;5031836;28;20200;-47
2023/12/02 05:19:50;;;;;;;0.00;0.00;;;23.40;48.20;;;;;;5031646;28;20269;-47
2023/12/02 05:22:20;;;;;;;0.00;0.00;;;23.40;48.10;;;;;;5032642;28;20571;-47
2023/12/02 05:24:53;;;;;;;0.03;0.03;;;23.40;48.10;;;;;;5029802;28;20203;-47
2023/12/02 05:27:24;;;;;;;0.00;0.00;;;23.40;48.10;;;;;;5028928;28;20199;-47
2023/12/02 05:29:54;;;;;;;0.00;0.00;;;23.40;48.10;;;;;;5032243;28;20204;-48
2023/12/02 05:32:25;;;;;;;0.00;0.00;;;23.40;48.10;;;;;;5032223;28;20203;-49
2023/12/02 05:34:56;;;;;;;0.00;0.00;;;23.40;48.00;;;;;;5032648;28;20542;-47
2023/12/02 05:37:26;;;;;;;0.00;0.00;;;23.40;48.10;;;;;;5031622;28;20192;-46
2023/12/02 05:39:59;;;;;;;0.00;0.00;;;23.50;48.10;;;;;;5030649;28;20199;-45
2023/12/02 05:42:30;;;;;;;0.00;0.00;;;23.50;48.20;;;;;;5031379;28;20200;-47
2023/12/02 05:45:00;;;;;;;0.00;0.00;;;23.50;48.20;;;;;;5031980;28;20208;-47
2023/12/02 05:47:31;;;;;;;0.00;0.00;;;23.50;48.20;;;;;;5031012;28;20278;-45
2023/12/02 05:50:02;;;;;;;0.00;0.00;;;23.50;48.10;;;;;;5031767;28;20594;-47
2023/12/02 05:52:33;;;;;;;0.00;0.00;;;23.50;48.10;;;;;;5031368;28;20192;-45
2023/12/02 05:55:06;;;;;;;0.00;0.00;;;23.50;48.10;;;;;;5030995;28;20211;-47
2023/12/02 05:57:36;;;;;;;0.00;0.00;;;23.50;48.10;;;;;;5030853;28;20184;-46
2023/12/02 06:00:08;;;;;;;0.00;0.00;;;23.50;48.10;;;;;;5031184;28;20216;-47
2023/12/02 06:02:39;;;;;;;0.00;0.00;;;23.50;48.10;;;;;;5031760;28;20212;-47
2023/12/02 06:05:10;;;;;;;0.00;0.00;;;23.50;48.10;;;;;;5031346;28;20196;-47
2023/12/02 06:07:41;;;;;;;0.00;0.00;;;23.50;48.10;;;;;;5031087;28;20242;-48
2023/12/02 06:10:14;;;;;;;0.00;0.00;;;23.50;48.10;;;;;;5031642;28;20609;-46
2023/12/02 06:12:44;;;;;;;0.00;0.00;;;23.50;48.10;;;;;;5028698;28;20197;-48
2023/12/02 06:15:15;;;;;;;0.00;0.00;;;23.50;48.10;;;;;;5031043;28;20192;-48
2023/12/02 06:17:46;;;;;;;0.00;0.00;;;23.50;48.10;;;;;;5031658;28;20199;-48
2023/12/02 06:20:17;;;;;;;0.00;0.00;;;23.50;48.00;;;;;;5031379;28;20215;-46
2023/12/02 06:22:47;;;;;;;0.00;0.00;;;23.50;48.10;;;;;;5031160;28;20231;-47
2023/12/02 06:25:20;;;;;;;0.00;0.00;;;23.50;48.00;;;;;;5031101;28;20196;-48
2023/12/02 06:27:50;;;;;;;0.00;0.00;;;23.50;48.00;;;;;;5030315;28;20218;-49
2023/12/02 06:30:21;;;;;;;0.00;0.00;;;23.50;48.10;;;;;;5027040;28;20243;-48
2023/12/02 06:32:52;;;;;;;0.00;0.00;;;23.50;48.00;;;;;;5023111;28;20207;-48
2023/12/02 06:35:23;;;;;;;0.00;0.00;;;23.50;48.10;;;;;;5014557;28;20646;-48
2023/12/02 06:37:53;;;;;;;0.00;0.00;;;23.50;48.00;;;;;;5030884;28;20194;-48
2023/12/02 06:40:26;;;;;;;0.00;0.00;;;23.50;48.00;;;;;;5020682;28;20586;-46
2023/12/02 06:42:57;;;;;;;0.00;0.00;;;23.50;48.00;;;;;;5013917;28;20328;-48
2023/12/02 06:45:28;;;;;;;0.00;0.00;;;23.50;48.00;;;;;;5031022;28;20199;-48
2023/12/02 06:47:59;;;;;;;0.10;0.10;;;23.50;47.90;;;;;;5029490;28;20223;-47
2023/12/02 06:50:29;;;;;;;0.00;0.00;;;23.60;48.00;;;;;;5010830;28;20283;-48
2023/12/02 06:53:00;;;;;;;0.00;0.00;;;23.60;48.00;;;;;;5016613;28;20286;-47
2023/12/02 06:55:33;;;;;;;0.00;0.00;;;23.50;47.90;;;;;;5030392;28;20204;-45
2023/12/02 06:58:03;;;;;;;0.00;0.00;;;23.50;47.90;;;;;;5031089;28;20200;-47
2023/12/02 07:00:34;;;;;;;0.00;0.00;;;23.50;47.90;;;;;;5031191;28;20215;-46
2023/12/02 07:03:08;;;;;;;0.00;0.00;;;23.50;47.80;;;;;;5031616;28;20579;-47
2023/12/02 07:05:39;;;;;;;0.00;0.00;;;23.50;47.80;;;;;;5031129;28;20199;-48
2023/12/02 07:08:10;;;;;;;0.00;0.00;;;23.50;47.80;;;;;;5031320;28;20459;-47
2023/12/02 07:10:42;;;;;;;0.10;0.10;;;23.50;47.70;;;;;;5030869;28;20220;-46
2023/12/02 07:13:13;;;;;;;0.00;0.00;;;23.50;47.80;;;;;;5030902;28;20202;-48
2023/12/02 07:15:44;;;;;;;0.00;0.00;;;23.50;47.70;;;;;;5031198;28;20200;-48
2023/12/02 07:18:14;;;;;;;0.00;0.00;;;23.50;47.70;;;;;;5031249;28;20203;-47
2023/12/02 07:20:45;;;;;;;0.00;0.00;;;23.50;47.70;;;;;;5031163;28;20688;-47
2023/12/02 07:23:17;;;;;;;0.00;0.00;;;23.50;47.70;;;;;;5030930;28;20216;-49
2023/12/02 07:25:50;;;;;;;0.00;0.00;;;23.50;47.80;;;;;;5029907;28;20207;-49
2023/12/02 07:28:21;;;;;;;0.00;0.00;;;23.50;47.80;;;;;;5029983;28;20192;-49
2023/12/02 07:30:51;;;;;;;0.00;0.00;;;23.50;47.80;;;;;;5030535;28;20743;-48
2023/12/02 07:33:23;;;;;;;0.00;0.00;;;23.50;47.80;;;;;;5030893;28;20659;-50
2023/12/02 07:35:53;;;;;;;0.00;0.00;;;23.50;47.80;;;;;;5030974;28;20660;-48
2023/12/02 07:38:24;;;;;;;0.00;0.00;;;23.50;47.80;;;;;;5030521;28;20197;-48
2023/12/02 07:40:57;;;;;;;0.00;0.00;;;23.50;47.80;;;;;;5030394;28;20216;-47
2023/12/02 07:43:27;;;;;;;0.00;0.00;;;23.50;47.80;;;;;;5030883;28;20220;-48
2023/12/02 07:45:58;;;;;;;0.00;0.00;;;23.50;47.70;;;;;;5031008;28;20569;-45
2023/12/02 07:48:29;;;;;;;0.00;0.00;;;23.50;47.70;;;;;;5031094;28;20219;-45
2023/12/02 07:51:06;;;;;;;0.00;0.00;;;23.50;47.80;;;;;;5030702;28;20303;-46
2023/12/02 07:53:36;;;;;;;0.00;0.00;;;23.50;47.80;;;;;;5030614;28;20462;-48
2023/12/02 07:56:10;;;;;;;0.00;0.00;;;23.50;47.80;;;;;;5010683;28;20193;-48
2023/12/02 07:58:41;;;;;;;0.00;0.00;;;23.50;47.80;;;;;;5011037;28;20208;-48
2023/12/02 08:01:12;;;;;;;0.00;0.00;;;23.50;47.80;;;;;;5010693;28;20799;-46
2023/12/02 08:03:42;;;;;;;0.00;0.00;;;23.40;47.70;;;;;;5012528;28;20224;-48
2023/12/02 08:06:13;;;;;;;0.00;0.00;;;23.40;47.70;;;;;;5014596;28;20649;-49
2023/12/02 08:08:44;;;;;;;0.00;0.00;;;23.40;47.70;;;;;;5014747;28;20200;-48
2023/12/02 08:11:17;;;;;;;0.00;0.00;;;23.40;47.70;;;;;;5013489;28;20216;-51
2023/12/02 08:13:48;;;;;;;0.00;0.00;;;23.40;47.70;;;;;;5014142;28;20727;-47
2023/12/02 08:16:19;;;;;;;0.00;0.00;;;23.40;47.70;;;;;;5027558;28;20199;-47
2023/12/02 08:18:49;;;;;;;0.00;0.00;;;23.40;47.70;;;;;;5034022;28;20200;-49
2023/12/02 08:21:20;;;;;;;0.10;0.10;;;23.40;47.60;;;;;;5033311;28;20212;-45
2023/12/02 08:23:51;;;;;;;0.00;0.00;;;23.40;47.60;;;;;;5033047;28;20220;-49
2023/12/02 08:26:24;;;;;;;0.00;0.00;;;23.40;47.60;;;;;;5033564;28;20196;-45
2023/12/02 08:28:55;;;;;;;0.00;0.00;;;23.40;47.60;;;;;;5033622;28;20557;-49
2023/12/02 08:31:25;;;;;;;0.00;0.00;;;23.40;47.60;;;;;;5033520;28;20239;-48
2023/12/02 08:33:56;;;;;;;0.00;0.00;;;23.40;47.60;;;;;;5022300;28;20204;-47
2023/12/02 08:36:27;;;;;;;0.10;0.10;;;23.40;47.50;;;;;;5013933;28;20197;-48
2023/12/02 08:38:58;;;;;;;0.00;0.00;;;23.40;47.50;;;;;;5013703;28;20645;-49
2023/12/02 08:41:30;;;;;;;0.00;0.00;;;23.40;47.50;;;;;;5013535;28;20221;-48
2023/12/02 08:44:01;;;;;;;0.00;0.00;;;23.40;47.50;;;;;;5013159;28;20228;-48
2023/12/02 08:46:32;;;;;;;0.00;0.00;;;23.40;47.50;;;;;;5023203;28;20200;-48
2023/12/02 08:49:03;;;;;;;0.00;0.00;;;23.40;47.50;;;;;;5029454;28;20523;-47
2023/12/02 08:51:33;;;;;;;0.00;0.00;;;23.40;47.50;;;;;;5031688;28;20263;-48
2023/12/02 08:54:05;;;;;;;0.00;0.00;;;23.40;47.60;;;;;;5020715;28;20192;-50
2023/12/02 08:56:37;;;;;;;0.00;0.00;;;23.30;47.50;;;;;;5032469;28;20196;-47
2023/12/02 08:59:08;;;;;;;0.00;0.00;;;23.30;47.50;;;;;;5030565;28;20180;-49
2023/12/02 09:01:39;;;;;;;0.00;0.00;;;23.30;47.50;;;;;;5032686;28;20220;-47
2023/12/02 09:04:09;;;;;;;0.00;0.00;;;23.30;47.50;;;;;;5033279;28;20215;-48
2023/12/02 09:06:40;;;;;;;0.00;0.00;;;23.30;47.50;;;;;;5030615;28;20200;-49
2023/12/02 09:09:11;;;;;;;0.00;0.00;;;23.30;47.50;;;;;;5021133;28;21455;-49
2023/12/02 09:11:43;;;;;;;0.00;0.00;;;23.30;47.40;;;;;;5031384;28;20227;-48
2023/12/02 09:14:14;;;;;;;0.00;0.00;;;23.30;47.40;;;;;;5031325;28;20189;-47
2023/12/02 09:16:48;;;;;;;0.00;0.00;;;23.30;47.40;;;;;;5031437;28;20192;-46
2023/12/02 09:19:53;;;;;;;0.00;0.00;;;23.30;47.40;;;;;;5031982;28;20200;-48
2023/12/02 09:22:46;;;;;;;0.00;0.00;;;23.30;47.40;;;;;;5032924;28;20258;-47
2023/12/02 09:25:35;;;;;;;0.00;0.00;;;23.30;47.50;;;;;;5031181;28;20235;-51
2023/12/02 09:28:26;;;;;;;0.00;0.00;;;23.30;47.40;;;;;;5032102;28;20664;-47
2023/12/02 09:31:03;;;;;;;0.00;0.00;;;23.30;47.40;;;;;;5031695;28;20216;-48
2023/12/02 09:33:35;;;;;;;0.00;0.00;;;23.20;47.40;;;;;;5031886;28;20199;-48
2023/12/02 09:36:07;;;;;;;0.00;0.00;;;23.20;47.40;;;;;;5031659;28;20655;-45
2023/12/02 09:38:38;;;;;;;0.00;0.00;;;23.20;47.50;;;;;;5031349;28;20200;-47
2023/12/02 09:41:23;;;;;;;0.00;0.00;;;23.20;47.50;;;;;;5011814;28;20674;-44
2023/12/02 09:44:23;;;;;;;0.10;0.10;;;23.20;47.50;;;;;;5017147;28;20255;-43
2023/12/02 09:47:06;;;;;;;0.00;0.00;;;23.20;47.50;;;;;;5007407;28;20566;-48
2023/12/02 09:49:50;;;;;;;0.00;0.00;;;23.20;47.50;;;;;;5017953;28;20709;-49
2023/12/02 09:52:36;;;;;;;0.00;0.00;;;23.20;47.50;;;;;;5031569;28;20557;-44
2023/12/02 09:55:12;;;;;;;0.00;0.00;;;23.10;47.50;;;;;;5031278;28;20395;-45
2023/12/02 09:57:49;;;;;;;0.00;0.00;;;23.10;47.50;;;;;;5031205;28;20211;-45
2023/12/02 10:00:32;;;;;;;0.00;0.00;;;23.10;47.50;;;;;;5030616;28;20261;-45
2023/12/02 10:03:18;;;;;;;0.00;0.00;;;23.10;47.50;;;;;;5031713;28;20204;-48
2023/12/02 10:05:59;;;;;;;0.00;0.00;;;23.10;47.50;;;;;;5031629;28;20226;-48
2023/12/02 10:08:38;;;;;;;0.00;0.00;;;23.10;47.40;;;;;;5031526;28;20196;-48
2023/12/02 10:11:13;;;;;;;0.00;0.00;;;23.10;47.40;;;;;;5031512;28;20226;-48
2023/12/02 10:13:55;;;;;;;0.00;0.00;;;23.10;47.40;;;;;;5031324;28;20222;-49
2023/12/02 10:16:31;;;;;;;0.03;0.03;;;23.10;47.50;;;;;;5011665;28;20193;-45
2023/12/02 10:19:03;;;;;;;0.00;0.00;;;23.10;47.40;;;;;;5012842;28;20667;-48
2023/12/02 10:21:39;;;;;;;0.10;0.10;;;23.10;47.50;;;;;;5031079;28;20228;-47
2023/12/02 10:24:13;;;;;;;0.00;0.00;;;23.10;47.50;;;;;;5031366;28;20259;-46
2023/12/02 10:26:48;;;;;;;0.00;0.00;;;23.10;47.50;;;;;;5032160;28;20198;-48
2023/12/02 10:29:23;;;;;;;0.00;0.00;;;23.00;47.40;;;;;;5031695;28;20229;-48
2023/12/02 10:32:06;;;;;;;0.00;0.00;;;23.10;47.50;;;;;;5031386;28;20266;-48
2023/12/02 10:34:45;;;;;;;0.00;0.00;;;23.00;47.40;;;;;;5031416;28;20191;-48
2023/12/02 10:37:17;;;;;;;0.00;0.00;;;23.00;47.40;;;;;;5031751;28;20539;-45
2023/12/02 10:39:52;;;;;;;0.00;0.00;;;23.00;47.40;;;;;;5017883;28;20204;-49
2023/12/02 10:42:28;;;;;;;0.00;0.00;;;23.00;47.40;;;;;;5030303;28;20523;-45
2023/12/02 10:45:05;;;;;;;0.00;0.00;;;23.00;47.40;;;;;;5030688;28;20215;-49
2023/12/02 10:47:38;;;;;;;0.00;0.00;;;23.00;47.40;;;;;;5029766;28;20184;-48
2023/12/02 10:50:10;;;;;;;0.00;0.00;;;23.00;47.40;;;;;;5029438;28;20208;-47
2023/12/02 10:52:46;;;;;;;0.00;0.00;;;23.00;47.40;;;;;;5031328;28;20647;-48
2023/12/02 10:55:17;;;;;;;0.00;0.00;;;23.00;47.40;;;;;;5030480;28;20203;-48
2023/12/02 10:57:48;;;;;;;0.00;0.00;;;23.00;47.40;;;;;;5029142;28;20192;-48
2023/12/02 11:00:20;;;;;;;0.00;0.00;;;23.00;47.40;;;;;;5030931;28;20219;-45
2023/12/02 11:03:04;;;;;;;0.00;0.00;;;23.00;47.40;;;;;;5031241;28;20314;-46
2023/12/02 11:05:45;;;;;;;0.00;0.00;;;23.00;47.40;;;;;;5029851;28;20220;-49
2023/12/02 11:08:20;;;;;;;0.00;0.00;;;23.00;47.40;;;;;;5029915;28;20192;-49
2023/12/02 11:10:54;;;;;;;0.03;0.03;;;23.00;47.40;;;;;;5029510;28;20208;-48
2023/12/02 11:13:25;;;;;;;0.00;0.00;;;23.00;47.40;;;;;;5028652;28;20195;-49
2023/12/02 11:16:21;;;;;;;0.00;0.00;;;23.00;47.40;;;;;;5030606;28;20188;-45
2023/12/02 11:19:11;;;;;;;0.00;0.00;;;22.90;47.40;;;;;;5030419;28;20192;-48
2023/12/02 11:21:53;;;;;;;0.10;0.10;;;22.90;47.40;;;;;;5011663;28;20221;-48
2023/12/02 11:24:31;;;;;;;0.10;0.10;;;22.90;47.40;;;;;;5017167;28;20231;-48
2023/12/02 11:27:17;;;;;;;0.05;0.05;;;22.90;47.40;;;;;;5030902;28;20196;-49
2023/12/02 11:30:05;;;;;;;0.00;0.00;;;22.90;47.40;;;;;;5031145;28;20200;-45
2023/12/02 11:32:47;;;;;;;0.00;0.00;;;22.90;47.40;;;;;;5031649;28;20197;-47
2023/12/02 11:35:25;;;;;;;0.10;0.10;;;22.90;47.40;;;;;;5031335;28;20196;-47
2023/12/02 11:38:07;;;;;;;0.00;0.00;;;22.90;47.40;;;;;;5030783;28;20200;-48
2023/12/02 11:40:50;;;;;;;0.05;0.05;;;22.90;47.40;;;;;;5034904;28;20227;-45
2023/12/02 11:43:32;;;;;;;0.10;0.10;;;22.90;47.40;;;;;;5034644;28;20203;-48
2023/12/02 11:46:10;;;;;;;0.00;0.00;;;22.90;47.40;;;;;;5034680;28;20227;-48
2023/12/02 11:48:49;;;;;;;0.00;0.00;;;22.90;47.40;;;;;;5035035;28;20195;-46
2023/12/02 11:51:44;;;;;;;0.00;0.00;;;22.90;47.40;;;;;;5033906;28;20687;-51
2023/12/02 11:54:33;;;;;;;0.00;0.00;;;22.90;47.40;;;;;;5034268;28;20211;-48
2023/12/02 11:57:19;;;;;;;0.00;0.00;;;22.90;47.40;;;;;;5034556;28;20200;-50
2023/12/02 12:00:06;;;;;;;0.08;0.08;;;22.90;47.40;;;;;;5034519;28;20211;-50
2023/12/02 12:03:02;;;;;;;0.00;0.00;;;22.80;47.40;;;;;;5034483;28;20196;-48
2023/12/02 12:05:43;;;;;;;0.00;0.00;;;22.90;47.40;;;;;;5034387;28;20596;-48
2023/12/02 12:08:20;;;;;;;0.00;0.00;;;22.80;47.40;;;;;;5034148;28;20211;-46
2023/12/02 12:10:54;;;;;;;0.00;0.00;;;22.80;47.40;;;;;;5034301;28;20211;-45
2023/12/02 12:13:27;;;;;;;0.00;0.00;;;22.80;47.40;;;;;;5034118;28;20204;-48
2023/12/02 12:15:58;;;;;;;0.00;0.00;;;22.80;47.40;;;;;;5034338;28;20254;-47
2023/12/02 12:18:28;;;;;;;0.10;0.10;;;22.70;47.40;;;;;;5034406;28;20238;-50
2023/12/02 12:20:59;;;;;;;0.00;0.00;;;22.80;47.50;;;;;;5034143;28;20243;-50
2023/12/02 12:23:32;;;;;;;0.00;0.00;;;22.80;47.50;;;;;;5034197;28;20192;-51
2023/12/02 12:26:03;;;;;;;0.00;0.00;;;22.80;47.50;;;;;;5033769;28;20381;-47
2023/12/02 12:28:39;;;;;;;0.00;0.00;;;22.80;48.10;;;;;;5033654;28;20196;-46
2023/12/02 12:31:12;;;;;;;0.00;0.00;;;22.80;47.40;;;;;;5033933;28;20215;-48
2023/12/02 12:33:43;;;;;;;0.00;0.00;;;22.80;47.40;;;;;;5033775;28;20675;-48
2023/12/02 12:36:14;;;;;;;0.00;0.00;;;22.80;47.40;;;;;;5033748;28;20200;-48
2023/12/02 12:38:48;;;;;;;0.00;0.00;;;22.70;47.40;;;;;;5033896;28;20234;-47
2023/12/02 12:41:22;;;;;;;0.00;0.00;;;22.70;47.30;;;;;;5033863;28;20226;-48
2023/12/02 12:43:53;;;;;;;0.00;0.00;;;22.70;47.40;;;;;;5033675;28;20262;-49
2023/12/02 12:46:28;;;;;;;0.00;0.00;;;22.70;47.30;;;;;;5025609;28;20219;-47
2023/12/02 12:48:59;;;;;;;0.00;0.00;;;22.70;47.40;;;;;;5013959;28;20279;-49
2023/12/02 12:51:31;;;;;;;0.08;0.08;;;22.70;47.30;;;;;;5020930;28;20271;-45
2023/12/02 12:54:07;;;;;;;0.00;0.00;;;22.70;47.40;;;;;;5016602;28;20200;-46
2023/12/02 12:56:47;;;;;;;0.00;0.00;;;22.70;47.40;;;;;;5026542;28;20204;-47
2023/12/02 12:59:19;;;;;;;0.00;0.00;;;22.70;47.40;;;;;;5013476;28;20615;-49
2023/12/02 13:02:00;;;;;;;0.00;0.00;;;22.70;47.40;;;;;;5013828;28;20217;-48
2023/12/02 13:04:37;;;;;;;0.00;0.00;;;22.70;47.40;;;;;;5014326;28;20193;-46
2023/12/02 13:07:14;;;;;;;0.00;0.00;;;22.70;47.40;;;;;;5014249;28;20555;-48
2023/12/02 13:09:50;;;;;;;0.00;0.00;;;22.70;47.40;;;;;;5013627;28;20200;-45
2023/12/02 13:12:24;;;;;;;0.00;0.00;;;22.70;47.40;;;;;;5013391;28;20205;-45
2023/12/02 13:14:59;;;;;;;0.00;0.00;;;22.70;47.50;;;;;;5013004;28;20204;-47
2023/12/02 13:17:31;;;;;;;0.10;0.10;;;22.60;47.40;;;;;;5013157;28;20188;-48
2023/12/02 13:20:04;;;;;;;0.00;0.00;;;22.70;47.40;;;;;;5012965;28;20200;-46